createdAt,value
2017-12-24T00:00:38.685Z,44.40
2017-12-24T00:03:05.608Z,37.13
2017-12-24T00:05:31.796Z,39.00
2017-12-24T00:07:57.988Z,38.03
2017-12-24T00:10:24.460Z,42.43
2017-12-24T00:12:50.821Z,33.53
2017-12-24T00:15:17.017Z,41.30
2017-12-24T00:17:43.209Z,39.97
2017-12-24T00:20:09.417Z,39.53
2017-12-24T00:22:35.619Z,39.30
2017-12-24T00:25:01.839Z,38.43
2017-12-24T00:27:28.793Z,40.03
2017-12-24T00:29:55.740Z,42.83
2017-12-24T00:32:22.656Z,40.40
2017-12-24T00:34:48.832Z,42.47
2017-12-24T00:37:15.756Z,48.20
2017-12-24T00:39:41.944Z,44.30
2017-12-24T00:42:08.135Z,37.37
2017-12-24T00:44:35.073Z,37.93
2017-12-24T00:47:01.259Z,42.77
2017-12-24T00:49:27.449Z,39.50
2017-12-24T00:51:53.641Z,40.30
2017-12-24T00:54:19.837Z,44.53
2017-12-24T00:56:46.032Z,40.07
2017-12-24T00:59:12.212Z,48.30
2017-12-24T01:01:38.397Z,37.90
2017-12-24T01:04:04.600Z,43.23
2017-12-24T01:06:30.764Z,55.93
2017-12-24T01:08:56.952Z,41.70
2017-12-24T01:11:23.224Z,38.87
2017-12-24T01:13:49.621Z,40.30
2017-12-24T01:16:15.819Z,33.43
2017-12-24T01:18:42.009Z,37.60
2017-12-24T01:21:08.185Z,35.20
2017-12-24T01:23:34.369Z,39.67
2017-12-24T01:26:00.550Z,36.03
2017-12-24T01:28:26.737Z,34.30
2017-12-24T01:30:52.927Z,39.00
2017-12-24T01:33:19.147Z,35.63
2017-12-24T01:35:45.321Z,34.00
2017-12-24T01:38:12.243Z,37.10
2017-12-24T01:40:38.458Z,38.77
2017-12-24T01:43:04.646Z,36.20
2017-12-24T01:45:30.827Z,40.20
2017-12-24T01:47:57.028Z,47.37
2017-12-24T01:50:23.220Z,33.17
2017-12-24T01:52:49.403Z,34.93
2017-12-24T01:55:15.595Z,39.10
2017-12-24T01:57:42.521Z,33.40
2017-12-24T02:00:08.747Z,45.27
2017-12-24T02:02:34.928Z,45.33
2017-12-24T02:05:01.844Z,42.03
2017-12-24T02:07:28.780Z,39.33
2017-12-24T02:09:54.985Z,39.80
2017-12-24T02:12:21.240Z,45.00
2017-12-24T02:14:47.450Z,45.20
2017-12-24T02:17:13.640Z,39.57
2017-12-24T02:19:39.813Z,44.37
2017-12-24T02:22:06.001Z,41.93
2017-12-24T02:24:32.192Z,43.97
2017-12-24T02:26:58.404Z,41.67
2017-12-24T02:29:24.612Z,37.33
2017-12-24T02:31:51.944Z,46.03
2017-12-24T02:34:18.113Z,41.63
2017-12-24T02:36:45.041Z,46.23
2017-12-24T02:39:12.196Z,43.77
2017-12-24T02:41:38.386Z,46.17
2017-12-24T02:44:04.556Z,47.43
2017-12-24T02:46:30.749Z,49.57
2017-12-24T02:48:56.924Z,49.20
2017-12-24T02:51:23.169Z,49.77
2017-12-24T02:53:49.380Z,47.57
2017-12-24T02:56:15.564Z,44.50
2017-12-24T02:58:42.483Z,43.43
2017-12-24T03:01:08.677Z,43.23
2017-12-24T03:03:34.851Z,44.07
2017-12-24T03:06:01.049Z,42.53
2017-12-24T03:08:27.254Z,37.00
2017-12-24T03:10:53.444Z,31.23
2017-12-24T03:13:19.700Z,39.10
2017-12-24T03:15:46.759Z,41.50
2017-12-24T03:18:13.684Z,31.80
2017-12-24T03:20:39.892Z,39.60
2017-12-24T03:23:06.092Z,43.43
2017-12-24T03:25:33.023Z,33.80
2017-12-24T03:27:59.973Z,36.60
2017-12-24T03:30:26.174Z,39.67
2017-12-24T03:32:52.368Z,45.03
2017-12-24T03:35:18.561Z,33.43
2017-12-24T03:37:44.762Z,43.43
2017-12-24T03:40:10.952Z,33.27
2017-12-24T03:42:37.864Z,35.77
2017-12-24T03:45:04.074Z,29.93
2017-12-24T03:47:30.266Z,28.87
2017-12-24T03:49:56.463Z,31.37
2017-12-24T03:52:22.676Z,33.07
2017-12-24T03:54:48.855Z,30.07
2017-12-24T03:57:15.798Z,28.13
2017-12-24T03:59:41.996Z,27.97
2017-12-24T04:02:08.176Z,30.70
2017-12-24T04:04:34.370Z,24.17
2017-12-24T04:07:00.557Z,34.90
2017-12-24T04:09:27.488Z,28.47
2017-12-24T04:11:53.673Z,25.23
2017-12-24T04:14:22.372Z,29.83
2017-12-24T04:16:48.773Z,29.67
2017-12-24T04:19:15.679Z,25.77
2017-12-24T04:21:41.903Z,26.63
2017-12-24T04:24:08.087Z,27.90
2017-12-24T04:26:35.016Z,33.63
2017-12-24T04:29:01.200Z,27.33
2017-12-24T04:31:27.387Z,27.27
2017-12-24T04:33:54.321Z,29.43
2017-12-24T04:36:20.517Z,26.63
2017-12-24T04:38:46.724Z,29.37
2017-12-24T04:41:12.909Z,27.90
2017-12-24T04:43:39.101Z,25.07
2017-12-24T04:46:06.044Z,24.17
2017-12-24T04:48:32.955Z,29.50
2017-12-24T04:50:59.175Z,29.57
2017-12-24T04:53:25.376Z,24.70
2017-12-24T04:55:51.572Z,29.27
2017-12-24T04:58:17.787Z,24.57
2017-12-24T05:00:43.975Z,25.70
2017-12-24T05:03:10.151Z,29.90
2017-12-24T05:05:36.339Z,21.90
2017-12-24T05:08:03.264Z,25.60
2017-12-24T05:10:29.461Z,22.40
2017-12-24T05:12:55.708Z,28.23
2017-12-24T05:15:21.991Z,26.57
2017-12-24T05:17:48.348Z,21.40
2017-12-24T05:20:14.543Z,24.13
2017-12-24T05:22:40.740Z,21.53
2017-12-24T05:25:06.914Z,16.97
2017-12-24T05:27:35.489Z,15.87
2017-12-24T05:30:01.677Z,17.00
2017-12-24T05:32:27.841Z,19.97
2017-12-24T05:34:54.032Z,15.27
2017-12-24T05:37:20.204Z,19.90
2017-12-24T05:39:46.364Z,20.90
2017-12-24T05:42:13.312Z,17.80
2017-12-24T05:44:39.483Z,17.43
2017-12-24T05:47:05.681Z,18.73
2017-12-24T05:49:32.126Z,18.53
2017-12-24T05:51:58.319Z,14.20
2017-12-24T05:54:24.500Z,16.37
2017-12-24T05:56:51.452Z,15.23
2017-12-24T05:59:18.372Z,13.30
2017-12-24T06:01:44.573Z,13.90
2017-12-24T06:04:10.804Z,16.67
2017-12-24T06:06:36.979Z,14.80
2017-12-24T06:09:03.179Z,18.07
2017-12-24T06:11:29.392Z,17.50
2017-12-24T06:13:55.565Z,16.47
2017-12-24T06:16:21.856Z,14.57
2017-12-24T06:18:48.982Z,16.73
2017-12-24T06:21:15.164Z,18.17
2017-12-24T06:23:41.365Z,13.57
2017-12-24T06:26:08.323Z,15.07
2017-12-24T06:28:35.232Z,14.60
2017-12-24T06:31:01.440Z,17.03
2017-12-24T06:33:27.640Z,14.00
2017-12-24T06:35:53.864Z,17.87
2017-12-24T06:38:20.789Z,20.30
2017-12-24T06:40:47.008Z,18.17
2017-12-24T06:43:13.213Z,18.73
2017-12-24T06:45:39.398Z,19.43
2017-12-24T06:48:05.600Z,19.80
2017-12-24T06:50:31.778Z,17.00
2017-12-24T06:52:57.948Z,22.63
2017-12-24T06:55:24.160Z,16.17
2017-12-24T06:57:50.362Z,21.60
2017-12-24T07:00:16.552Z,16.27
2017-12-24T07:02:42.753Z,18.70
2017-12-24T07:05:09.708Z,16.67
2017-12-24T07:07:36.622Z,16.03
2017-12-24T07:10:02.821Z,17.07
2017-12-24T07:12:28.996Z,16.40
2017-12-24T07:14:55.179Z,18.07
2017-12-24T07:17:21.468Z,19.20
2017-12-24T07:19:48.414Z,18.37
2017-12-24T07:22:14.569Z,20.23
2017-12-24T07:24:40.801Z,20.50
2017-12-24T07:27:07.743Z,19.93
2017-12-24T07:29:34.705Z,18.57
2017-12-24T07:32:01.674Z,16.97
2017-12-24T07:34:28.596Z,19.07
2017-12-24T07:36:54.772Z,19.70
2017-12-24T07:39:20.951Z,18.87
2017-12-24T07:41:47.912Z,12.57
2017-12-24T07:44:14.125Z,15.43
2017-12-24T07:46:40.324Z,12.10
2017-12-24T07:49:06.485Z,18.20
2017-12-24T07:51:32.665Z,19.60
2017-12-24T07:53:59.689Z,13.00
2017-12-24T07:56:25.872Z,18.27
2017-12-24T07:58:52.085Z,21.07
2017-12-24T08:01:19.023Z,17.70
2017-12-24T08:03:45.205Z,17.27
2017-12-24T08:06:11.408Z,16.27
2017-12-24T08:08:38.347Z,14.53
2017-12-24T08:11:04.536Z,18.57
2017-12-24T08:13:30.749Z,18.10
2017-12-24T08:15:56.932Z,17.30
2017-12-24T08:18:23.161Z,19.20
2017-12-24T08:20:49.542Z,18.83
2017-12-24T08:23:15.740Z,17.53
2017-12-24T08:25:41.919Z,14.10
2017-12-24T08:28:08.106Z,14.47
2017-12-24T08:30:34.349Z,14.80
2017-12-24T08:33:01.285Z,13.73
2017-12-24T08:35:27.472Z,14.67
2017-12-24T08:37:53.734Z,12.50
2017-12-24T08:40:19.927Z,13.30
2017-12-24T08:42:46.840Z,12.83
2017-12-24T08:45:13.039Z,15.53
2017-12-24T08:47:39.232Z,19.63
2017-12-24T08:50:06.161Z,19.90
2017-12-24T08:52:32.372Z,18.40
2017-12-24T08:54:58.660Z,15.50
2017-12-24T08:57:24.816Z,19.80
2017-12-24T08:59:51.028Z,25.80
2017-12-24T09:02:17.240Z,20.60
2017-12-24T09:04:43.432Z,18.57
2017-12-24T09:07:09.629Z,17.90
2017-12-24T09:09:36.592Z,18.23
2017-12-24T09:12:02.806Z,16.50
2017-12-24T09:14:29.008Z,20.90
2017-12-24T09:16:55.203Z,16.90
2017-12-24T09:19:21.689Z,20.40
2017-12-24T09:21:48.065Z,18.70
2017-12-24T09:24:14.275Z,22.97
2017-12-24T09:26:41.224Z,20.40
2017-12-24T09:29:07.440Z,17.30
2017-12-24T09:31:33.620Z,17.77
2017-12-24T09:33:59.830Z,20.07
2017-12-24T09:36:26.024Z,18.47
2017-12-24T09:38:52.208Z,16.37
2017-12-24T09:41:19.120Z,17.67
2017-12-24T09:43:45.368Z,22.87
2017-12-24T09:46:12.314Z,20.80
2017-12-24T09:51:14.617Z,17.50
2017-12-24T09:53:40.788Z,21.47
2017-12-24T09:56:06.963Z,18.80
2017-12-24T09:58:33.162Z,19.60
2017-12-24T10:00:59.341Z,20.67
2017-12-24T10:03:25.512Z,21.93
2017-12-24T10:05:52.428Z,22.87
2017-12-24T10:08:18.620Z,18.90
2017-12-24T10:10:44.821Z,21.33
2017-12-24T10:13:11.776Z,19.30
2017-12-24T10:15:38.689Z,24.80
2017-12-24T10:18:04.872Z,25.00
2017-12-24T10:20:31.144Z,22.80
2017-12-24T10:22:57.364Z,24.27
2017-12-24T10:25:23.572Z,23.60
2017-12-24T10:27:49.773Z,27.03
2017-12-24T10:30:15.947Z,28.43
2017-12-24T10:32:42.139Z,32.83
2017-12-24T10:35:08.336Z,26.53
2017-12-24T10:37:34.513Z,28.60
2017-12-24T10:40:00.706Z,27.87
2017-12-24T10:42:26.905Z,31.23
2017-12-24T10:44:53.092Z,35.07
2017-12-24T10:47:19.308Z,31.90
2017-12-24T10:49:45.508Z,33.53
2017-12-24T10:52:12.440Z,36.17
2017-12-24T10:54:38.948Z,33.20
2017-12-24T10:57:05.176Z,30.87
2017-12-24T10:59:31.360Z,36.20
2017-12-24T11:01:58.303Z,33.70
2017-12-24T11:04:25.243Z,38.03
2017-12-24T11:06:51.420Z,32.60
2017-12-24T11:09:17.600Z,35.60
2017-12-24T11:11:43.781Z,39.67
2017-12-24T11:14:09.965Z,32.63
2017-12-24T11:16:36.144Z,34.70
2017-12-24T11:19:02.344Z,35.13
2017-12-24T11:21:29.428Z,40.10
2017-12-24T11:23:55.849Z,35.27
2017-12-24T11:26:22.787Z,33.67
2017-12-24T11:28:48.968Z,35.23
2017-12-24T11:31:15.153Z,29.00
2017-12-24T11:33:42.148Z,40.30
2017-12-24T11:36:08.336Z,32.03
2017-12-24T11:38:34.532Z,32.60
2017-12-24T11:41:00.748Z,29.67
2017-12-24T11:43:26.928Z,34.03
2017-12-24T11:45:53.120Z,32.63
2017-12-24T11:48:19.319Z,37.00
2017-12-24T11:50:46.256Z,34.00
2017-12-24T11:53:12.432Z,33.07
2017-12-24T11:55:38.623Z,35.10
2017-12-24T11:58:04.821Z,31.93
2017-12-24T12:00:31.050Z,33.73
2017-12-24T12:02:57.259Z,30.93
2017-12-24T12:05:23.475Z,26.73
2017-12-24T12:07:50.393Z,36.30
2017-12-24T12:10:16.609Z,31.30
2017-12-24T12:12:42.831Z,30.90
2017-12-24T12:15:09.028Z,35.03
2017-12-24T12:17:35.980Z,28.53
2017-12-24T12:20:02.959Z,26.20
2017-12-24T12:22:29.388Z,28.90
2017-12-24T12:24:55.754Z,27.00
2017-12-24T12:27:21.959Z,23.73
2017-12-24T12:29:48.899Z,26.60
2017-12-24T12:32:15.112Z,25.50
2017-12-24T12:34:42.040Z,20.03
2017-12-24T12:37:08.236Z,18.70
2017-12-24T12:39:34.429Z,20.33
2017-12-24T12:42:00.612Z,19.57
2017-12-24T12:44:26.800Z,18.57
2017-12-24T12:46:53.011Z,22.60
2017-12-24T12:49:19.212Z,23.73
2017-12-24T12:51:45.420Z,19.00
2017-12-24T12:54:11.652Z,18.27
2017-12-24T12:56:38.564Z,17.00
2017-12-24T12:59:04.779Z,20.90
2017-12-24T13:01:30.983Z,17.30
2017-12-24T13:03:57.164Z,17.20
2017-12-24T13:06:23.363Z,24.33
2017-12-24T13:08:49.628Z,17.73
2017-12-24T13:11:15.808Z,18.70
2017-12-24T13:13:42.756Z,17.10
2017-12-24T13:16:09.720Z,16.73
2017-12-24T13:18:35.912Z,15.67
2017-12-24T13:21:02.104Z,21.17
2017-12-24T13:23:28.396Z,16.87
2017-12-24T13:25:54.861Z,21.33
2017-12-24T13:28:21.056Z,15.20
2017-12-24T13:30:47.278Z,14.00
2017-12-24T13:33:13.488Z,15.53
2017-12-24T13:35:39.663Z,11.83
2017-12-24T13:38:06.625Z,13.73
2017-12-24T13:40:33.574Z,13.33
2017-12-24T13:43:00.501Z,15.93
2017-12-24T13:45:26.740Z,14.23
2017-12-24T13:47:52.939Z,14.57
2017-12-24T13:50:19.117Z,12.40
2017-12-24T13:52:45.324Z,14.30
2017-12-24T13:55:11.540Z,16.43
2017-12-24T13:57:37.764Z,16.80
2017-12-24T14:00:03.992Z,13.47
2017-12-24T14:02:30.186Z,16.53
2017-12-24T14:04:56.364Z,15.10
2017-12-24T14:07:22.612Z,12.33
2017-12-24T14:09:48.853Z,14.33
2017-12-24T14:12:15.057Z,19.17
2017-12-24T14:14:41.292Z,14.43
2017-12-24T14:17:07.512Z,19.40
2017-12-24T14:19:34.440Z,14.97
2017-12-24T14:22:00.668Z,23.03
2017-12-24T14:24:27.057Z,22.80
2017-12-24T14:26:53.385Z,15.67
2017-12-24T14:29:20.326Z,17.27
2017-12-24T14:31:47.236Z,16.90
2017-12-24T14:34:13.432Z,14.90
2017-12-24T14:36:39.661Z,15.37
2017-12-24T14:39:05.904Z,17.80
2017-12-24T14:41:32.102Z,12.60
2017-12-24T14:43:58.292Z,15.40
2017-12-24T14:46:24.477Z,14.50
2017-12-24T14:48:51.384Z,15.17
2017-12-24T14:51:17.569Z,15.80
2017-12-24T14:53:43.770Z,14.40
2017-12-24T14:56:09.959Z,13.30
2017-12-24T14:58:36.164Z,10.07
2017-12-24T15:01:03.093Z,11.93
2017-12-24T15:03:29.284Z,13.83
2017-12-24T15:05:55.468Z,13.77
2017-12-24T15:08:21.644Z,11.47
2017-12-24T15:10:47.839Z,11.53
2017-12-24T15:13:14.054Z,13.93
2017-12-24T15:15:40.301Z,10.07
2017-12-24T15:18:06.522Z,15.30
2017-12-24T15:20:32.768Z,12.90
2017-12-24T15:22:58.976Z,12.00
2017-12-24T15:25:25.270Z,12.27
2017-12-24T15:27:51.744Z,11.80
2017-12-24T15:30:17.963Z,11.43
2017-12-24T15:32:44.179Z,16.17
2017-12-24T15:35:10.371Z,14.23
2017-12-24T15:37:36.564Z,15.00
2017-12-24T15:40:02.772Z,13.47
2017-12-24T15:42:29.726Z,13.20
2017-12-24T15:44:56.663Z,13.63
2017-12-24T15:47:22.880Z,13.90
2017-12-24T15:49:49.116Z,15.57
2017-12-24T15:52:16.061Z,11.40
2017-12-24T15:54:42.272Z,18.10
2017-12-24T15:57:08.504Z,11.73
2017-12-24T15:59:34.706Z,12.30
2017-12-24T16:02:00.927Z,15.63
2017-12-24T16:04:27.837Z,11.53
2017-12-24T16:06:54.069Z,14.70
2017-12-24T16:09:21.057Z,14.00
2017-12-24T16:11:47.996Z,14.30
2017-12-24T16:14:14.988Z,16.40
2017-12-24T16:16:41.144Z,12.63
2017-12-24T16:19:07.352Z,16.10
2017-12-24T16:21:33.559Z,13.20
2017-12-24T16:26:21.009Z,19.33
2017-12-24T16:28:47.282Z,13.63
2017-12-24T16:31:13.474Z,16.40
2017-12-24T16:33:40.436Z,18.53
2017-12-24T16:36:07.353Z,17.30
2017-12-24T16:38:33.573Z,16.23
2017-12-24T16:40:59.759Z,21.10
2017-12-24T16:43:26.693Z,13.47
2017-12-24T16:45:52.892Z,17.90
2017-12-24T16:48:19.081Z,16.33
2017-12-24T16:50:46.014Z,21.83
2017-12-24T16:53:12.196Z,15.20
2017-12-24T16:55:38.411Z,14.60
2017-12-24T16:58:04.585Z,14.13
2017-12-24T17:00:30.768Z,20.70
2017-12-24T17:02:56.993Z,17.03
2017-12-24T17:05:23.917Z,20.03
2017-12-24T17:07:50.120Z,16.67
2017-12-24T17:10:16.324Z,19.30
2017-12-24T17:12:42.537Z,18.40
2017-12-24T17:15:09.484Z,21.23
2017-12-24T17:17:35.676Z,19.43
2017-12-24T17:20:01.879Z,17.17
2017-12-24T17:22:28.077Z,16.27
2017-12-24T17:24:54.249Z,19.70
2017-12-24T17:27:21.308Z,15.73
2017-12-24T17:29:47.630Z,20.83
2017-12-24T17:32:13.892Z,20.27
2017-12-24T17:34:40.078Z,19.93
2017-12-24T17:37:06.276Z,16.43
2017-12-24T17:39:32.494Z,21.03
2017-12-24T17:41:58.689Z,21.63
2017-12-24T17:44:25.605Z,24.30
2017-12-24T17:46:51.826Z,25.73
2017-12-24T17:49:18.000Z,20.60
2017-12-24T17:51:45.665Z,18.20
2017-12-24T17:54:11.856Z,19.70
2017-12-24T17:56:38.041Z,21.13
2017-12-24T17:59:04.986Z,22.47
2017-12-24T18:01:31.956Z,18.40
2017-12-24T18:03:58.868Z,24.30
2017-12-24T18:06:25.823Z,26.30
2017-12-24T18:08:52.044Z,24.37
2017-12-24T18:11:18.246Z,21.10
2017-12-24T18:13:44.441Z,20.37
2017-12-24T18:16:11.382Z,23.23
2017-12-24T18:18:37.561Z,23.27
2017-12-24T18:21:03.723Z,25.20
2017-12-24T18:23:29.912Z,23.20
2017-12-24T18:25:56.842Z,30.00
2017-12-24T18:28:23.088Z,29.30
2017-12-24T18:30:49.304Z,25.33
2017-12-24T18:33:15.475Z,30.50
2017-12-24T18:35:41.705Z,30.30
2017-12-24T18:38:07.894Z,29.40
2017-12-24T18:40:34.081Z,29.13
2017-12-24T18:43:00.288Z,32.40
2017-12-24T18:45:27.216Z,29.73
2017-12-24T18:47:53.398Z,29.33
2017-12-24T18:50:19.588Z,34.10
2017-12-24T18:52:45.788Z,43.17
2017-12-24T18:55:11.985Z,28.90
2017-12-24T18:57:38.216Z,28.53
2017-12-24T19:00:05.161Z,42.87
2017-12-24T19:02:32.074Z,38.20
2017-12-24T19:04:58.248Z,31.47
2017-12-24T19:07:25.185Z,36.67
2017-12-24T19:09:52.104Z,33.90
2017-12-24T19:12:18.280Z,32.43
2017-12-24T19:14:45.225Z,37.50
2017-12-24T19:17:12.152Z,35.60
2017-12-24T19:19:38.362Z,32.70
2017-12-24T19:22:04.564Z,30.00
2017-12-24T19:24:30.760Z,39.17
2017-12-24T19:26:56.960Z,34.13
2017-12-24T19:29:23.508Z,30.97
2017-12-24T19:31:49.889Z,32.90
2017-12-24T19:34:16.053Z,32.40
2017-12-24T19:36:42.285Z,38.33
2017-12-24T19:39:08.504Z,36.77
2017-12-24T19:41:34.681Z,30.40
2017-12-24T19:44:00.905Z,33.27
2017-12-24T19:46:27.145Z,28.00
2017-12-24T19:48:53.349Z,29.17
2017-12-24T19:51:19.552Z,32.30
2017-12-24T19:53:46.473Z,34.60
2017-12-24T19:56:12.651Z,30.73
2017-12-24T19:58:38.860Z,32.47
2017-12-24T20:01:05.072Z,33.13
2017-12-24T20:03:31.285Z,29.40
2017-12-24T20:05:57.515Z,31.27
2017-12-24T20:08:23.710Z,31.03
2017-12-24T20:10:49.872Z,32.63
2017-12-24T20:13:16.136Z,33.40
2017-12-24T20:15:42.349Z,37.30
2017-12-24T20:18:08.560Z,27.27
2017-12-24T20:20:35.504Z,30.33
2017-12-24T20:23:02.456Z,33.80
2017-12-24T20:25:29.416Z,26.60
2017-12-24T20:27:55.666Z,25.07
2017-12-24T20:30:22.124Z,27.60
2017-12-24T20:32:48.329Z,29.53
2017-12-24T20:35:14.548Z,30.23
2017-12-24T20:37:41.480Z,30.37
2017-12-24T20:40:07.669Z,33.47
2017-12-24T20:42:33.904Z,27.53
2017-12-24T20:45:00.073Z,27.40
2017-12-24T20:47:26.247Z,28.17
2017-12-24T20:49:52.475Z,29.40
2017-12-24T20:52:18.721Z,30.63
2017-12-24T20:54:45.638Z,27.53
2017-12-24T20:57:11.866Z,32.47
2017-12-24T20:59:38.045Z,30.37
2017-12-24T21:02:04.241Z,26.27
2017-12-24T21:04:31.203Z,31.40
2017-12-24T21:06:58.131Z,25.70
2017-12-24T21:09:24.344Z,31.27
2017-12-24T21:11:50.519Z,33.57
2017-12-24T21:14:17.453Z,36.43
2017-12-24T21:16:43.644Z,33.37
2017-12-24T21:19:09.860Z,31.67
2017-12-24T21:21:36.049Z,33.53
2017-12-24T21:24:03.017Z,30.73
2017-12-24T21:26:30.032Z,29.80
2017-12-24T21:28:56.236Z,31.27
2017-12-24T21:31:22.533Z,31.03
2017-12-24T21:33:48.764Z,29.23
2017-12-24T21:36:15.736Z,32.37
2017-12-24T21:38:42.657Z,26.50
2017-12-24T21:41:08.851Z,29.50
2017-12-24T21:43:35.053Z,27.80
2017-12-24T21:46:01.975Z,31.63
2017-12-24T21:48:28.206Z,31.30
2017-12-24T21:50:54.415Z,29.83
2017-12-24T21:53:20.659Z,31.50
2017-12-24T21:55:46.896Z,29.10
2017-12-24T21:58:13.078Z,32.07
2017-12-24T22:00:39.283Z,34.20
2017-12-24T22:03:05.501Z,29.50
2017-12-24T22:05:31.713Z,24.87
2017-12-24T22:07:57.920Z,27.60
2017-12-24T22:10:24.156Z,31.57
2017-12-24T22:12:50.340Z,36.40
2017-12-24T22:15:16.527Z,28.43
2017-12-24T22:17:42.732Z,33.00
2017-12-24T22:20:09.693Z,31.47
2017-12-24T22:22:36.655Z,30.23
2017-12-24T22:25:03.609Z,25.67
2017-12-24T22:27:30.532Z,24.97
2017-12-24T22:29:56.753Z,25.47
2017-12-24T22:32:23.044Z,23.53
2017-12-24T22:34:49.395Z,25.67
2017-12-24T22:37:15.603Z,25.33
2017-12-24T22:39:42.540Z,22.77
2017-12-24T22:42:09.476Z,21.03
2017-12-24T22:44:35.696Z,19.27
2017-12-24T22:47:01.914Z,16.87
2017-12-24T22:49:28.096Z,15.80
2017-12-24T22:51:55.032Z,11.87
2017-12-24T22:54:21.213Z,9.83
2017-12-24T22:56:47.421Z,19.40
2017-12-24T22:59:14.336Z,11.07
2017-12-24T23:01:40.566Z,8.40
2017-12-24T23:04:07.510Z,6.93
2017-12-24T23:06:33.720Z,7.07
2017-12-24T23:08:59.937Z,6.67
2017-12-24T23:11:26.112Z,7.37
2017-12-24T23:13:52.353Z,5.87
2017-12-24T23:16:18.572Z,7.07
2017-12-24T23:18:44.753Z,6.13
2017-12-24T23:21:11.667Z,6.00
2017-12-24T23:23:37.872Z,6.07
2017-12-24T23:26:04.060Z,6.63
2017-12-24T23:28:31.009Z,4.90
2017-12-24T23:30:57.946Z,5.53
2017-12-24T23:33:24.956Z,7.20
2017-12-24T23:35:51.176Z,5.83
2017-12-24T23:38:17.351Z,6.07
2017-12-24T23:40:43.536Z,7.10
2017-12-24T23:43:10.478Z,5.83
2017-12-24T23:45:37.420Z,7.23
2017-12-24T23:48:03.582Z,6.83
2017-12-24T23:50:30.509Z,9.20
2017-12-24T23:52:57.464Z,7.23
2017-12-24T23:55:24.410Z,7.53
2017-12-24T23:57:51.356Z,7.70
